createdAt,value
2023-05-11T00:00:13.416Z,1014.11
2023-05-11T00:01:13.395Z,1014.13
2023-05-11T00:02:13.497Z,1014.12
2023-05-11T00:03:13.567Z,1014.16
2023-05-11T00:04:13.761Z,1014.14
2023-05-11T00:05:18.588Z,1014.14
2023-05-11T00:06:13.544Z,1014.12
2023-05-11T00:07:13.365Z,1014.11
2023-05-11T00:08:15.542Z,1014.09
2023-05-11T00:09:12.960Z,1014.09
2023-05-11T00:10:12.829Z,1014.07
2023-05-11T00:11:13.812Z,1014.08
2023-05-11T00:12:13.694Z,1014.06
2023-05-11T00:13:13.923Z,1014.06
2023-05-11T00:14:12.752Z,1014.08
2023-05-11T00:15:13.597Z,1014.04
2023-05-11T00:16:13.456Z,1014.05
2023-05-11T00:17:13.285Z,1014.10
2023-05-11T00:18:13.123Z,1014.06
2023-05-11T00:19:13.192Z,1014.09
2023-05-11T00:20:13.557Z,1014.07
2023-05-11T00:21:13.750Z,1014.08
2023-05-11T00:22:13.667Z,1014.05
2023-05-11T00:23:13.513Z,1014.08
2023-05-11T00:24:13.410Z,1014.05
2023-05-11T00:25:13.274Z,1014.08
2023-05-11T00:26:13.261Z,1014.05
2023-05-11T00:27:13.280Z,1014.07
2023-05-11T00:28:13.441Z,1014.06
2023-05-11T00:29:13.561Z,1014.08
2023-05-11T00:30:13.525Z,1014.08
2023-05-11T00:31:13.575Z,1014.09
2023-05-11T00:32:13.633Z,1014.06
2023-05-11T00:33:13.602Z,1014.06
2023-05-11T00:34:13.458Z,1014.07
2023-05-11T00:35:13.356Z,1014.10
2023-05-11T00:36:13.631Z,1014.08
2023-05-11T00:37:13.422Z,1014.09
2023-05-11T00:38:13.280Z,1014.12
2023-05-11T00:39:13.037Z,1014.08
2023-05-11T00:40:12.809Z,1014.09
2023-05-11T00:41:13.947Z,1014.10
2023-05-11T00:42:12.703Z,1014.08
2023-05-11T00:43:13.584Z,1014.08
2023-05-11T00:44:13.403Z,1014.10
2023-05-11T00:45:13.265Z,1014.05
2023-05-11T00:46:13.080Z,1014.07
2023-05-11T00:47:12.967Z,1014.09
2023-05-11T00:48:12.854Z,1014.07
2023-05-11T00:49:13.948Z,1014.06
2023-05-11T00:50:12.910Z,1014.04
2023-05-11T00:51:12.820Z,1014.07
2023-05-11T00:52:13.733Z,1014.05
2023-05-11T00:53:13.818Z,1014.06
2023-05-11T00:54:13.603Z,1014.07
2023-05-11T00:55:13.453Z,1014.09
2023-05-11T00:56:13.299Z,1014.09
2023-05-11T00:57:13.093Z,1014.09
2023-05-11T00:58:12.869Z,1014.07
2023-05-11T00:59:13.639Z,1014.10
2023-05-11T01:00:13.616Z,1014.09
2023-05-11T01:01:13.503Z,1014.05
2023-05-11T01:02:13.494Z,1014.02
2023-05-11T01:03:13.464Z,1014.06
2023-05-11T01:04:14.565Z,1014.03
2023-05-11T01:05:13.613Z,1014.02
2023-05-11T01:06:13.666Z,1014.01
2023-05-11T01:07:13.580Z,1014.02
2023-05-11T01:08:13.620Z,1013.99
2023-05-11T01:09:13.502Z,1014.03
2023-05-11T01:10:13.373Z,1014.05
2023-05-11T01:11:13.308Z,1013.99
2023-05-11T01:12:13.190Z,1014.02
2023-05-11T01:13:13.046Z,1014.04
2023-05-11T01:14:12.970Z,1014.04
2023-05-11T01:15:12.788Z,1014.03
2023-05-11T01:16:13.631Z,1014.02
2023-05-11T01:17:13.977Z,1014.02
2023-05-11T01:18:12.960Z,1014.02
2023-05-11T01:19:13.359Z,1014.01
2023-05-11T01:20:13.330Z,1014.03
2023-05-11T01:21:13.137Z,1014.04
2023-05-11T01:22:12.957Z,1014.07
2023-05-11T01:23:13.109Z,1014.08
2023-05-11T01:24:12.989Z,1014.07
2023-05-11T01:25:13.095Z,1014.08
2023-05-11T01:26:13.182Z,1014.09
2023-05-11T01:27:13.101Z,1014.09
2023-05-11T01:28:13.001Z,1014.08
2023-05-11T01:29:12.897Z,1014.08
2023-05-11T01:30:13.092Z,1014.08
2023-05-11T01:31:13.198Z,1014.09
2023-05-11T01:32:13.061Z,1014.06
2023-05-11T01:33:13.447Z,1014.06
2023-05-11T01:34:13.458Z,1014.06
2023-05-11T01:35:13.228Z,1014.08
2023-05-11T01:36:13.196Z,1014.07
2023-05-11T01:37:13.259Z,1014.06
2023-05-11T01:38:13.232Z,1014.09
2023-05-11T01:39:13.417Z,1014.11
2023-05-11T01:40:13.271Z,1014.15
2023-05-11T01:41:13.122Z,1014.11
2023-05-11T01:42:13.102Z,1014.08
2023-05-11T01:43:12.931Z,1014.10
2023-05-11T01:44:12.770Z,1014.11
2023-05-11T01:45:13.724Z,1014.12
2023-05-11T01:46:13.578Z,1014.10
2023-05-11T01:47:13.855Z,1014.10
2023-05-11T01:48:13.662Z,1014.16
2023-05-11T01:49:13.716Z,1014.12
2023-05-11T01:50:13.544Z,1014.14
2023-05-11T01:51:13.319Z,1014.16
2023-05-11T01:52:13.353Z,1014.15
2023-05-11T01:53:13.471Z,1014.15
2023-05-11T01:54:13.552Z,1014.18
2023-05-11T01:55:13.355Z,1014.19
2023-05-11T01:56:13.213Z,1014.16
2023-05-11T01:57:13.771Z,1014.16
2023-05-11T01:58:13.789Z,1014.20
2023-05-11T01:59:13.639Z,1014.19
2023-05-11T02:00:13.457Z,1014.20
2023-05-11T02:01:13.601Z,1014.24
2023-05-11T02:02:13.893Z,1014.24
2023-05-11T02:03:12.882Z,1014.25
2023-05-11T02:04:12.895Z,1014.21
2023-05-11T02:05:12.857Z,1014.23
2023-05-11T02:06:13.669Z,1014.25
2023-05-11T02:07:13.552Z,1014.25
2023-05-11T02:08:13.308Z,1014.24
2023-05-11T02:09:13.225Z,1014.23
2023-05-11T02:10:13.051Z,1014.24
2023-05-11T02:11:12.864Z,1014.19
2023-05-11T02:12:13.727Z,1014.20
2023-05-11T02:13:13.663Z,1014.25
2023-05-11T02:14:13.611Z,1014.22
2023-05-11T02:15:13.385Z,1014.21
2023-05-11T02:16:13.336Z,1014.29
2023-05-11T02:17:13.463Z,1014.23
2023-05-11T02:18:13.521Z,1014.25
2023-05-11T02:19:13.275Z,1014.24
2023-05-11T02:20:13.062Z,1014.28
2023-05-11T02:21:13.039Z,1014.28
2023-05-11T02:22:13.006Z,1014.26
2023-05-11T02:23:13.029Z,1014.30
2023-05-11T02:24:12.797Z,1014.27
2023-05-11T02:25:13.703Z,1014.31
2023-05-11T02:26:13.427Z,1014.27
2023-05-11T02:27:13.284Z,1014.26
2023-05-11T02:28:13.073Z,1014.25
2023-05-11T02:29:12.945Z,1014.25
2023-05-11T02:30:12.840Z,1014.24
2023-05-11T02:31:13.648Z,1014.26
2023-05-11T02:32:13.525Z,1014.25
2023-05-11T02:33:13.707Z,1014.24
2023-05-11T02:34:13.653Z,1014.20
2023-05-11T02:35:13.474Z,1014.22
2023-05-11T02:36:13.372Z,1014.23
2023-05-11T02:37:13.517Z,1014.23
2023-05-11T02:38:13.626Z,1014.26
2023-05-11T02:39:13.579Z,1014.25
2023-05-11T02:40:13.400Z,1014.30
2023-05-11T02:41:13.420Z,1014.25
2023-05-11T02:42:13.479Z,1014.22
2023-05-11T02:43:13.385Z,1014.26
2023-05-11T02:44:13.155Z,1014.23
2023-05-11T02:45:13.972Z,1014.27
2023-05-11T02:46:13.134Z,1014.23
2023-05-11T02:47:13.352Z,1014.28
2023-05-11T02:48:13.240Z,1014.26
2023-05-11T02:49:13.377Z,1014.25
2023-05-11T02:50:13.282Z,1014.26
2023-05-11T02:51:13.066Z,1014.23
2023-05-11T02:52:13.276Z,1014.28
2023-05-11T02:53:13.196Z,1014.25
2023-05-11T02:54:13.355Z,1014.22
2023-05-11T02:55:13.188Z,1014.24
2023-05-11T02:56:13.515Z,1014.22
2023-05-11T02:57:13.368Z,1014.21
2023-05-11T02:58:13.642Z,1014.27
2023-05-11T02:59:13.537Z,1014.24
2023-05-11T03:00:13.377Z,1014.24
2023-05-11T03:01:13.475Z,1014.24
2023-05-11T03:02:13.711Z,1014.21
2023-05-11T03:03:13.732Z,1014.21
2023-05-11T03:04:13.630Z,1014.21
2023-05-11T03:05:13.458Z,1014.23
2023-05-11T03:06:13.358Z,1014.25
2023-05-11T03:07:13.237Z,1014.30
2023-05-11T03:08:13.100Z,1014.27
2023-05-11T03:09:12.922Z,1014.32
2023-05-11T03:10:12.723Z,1014.31
2023-05-11T03:11:13.534Z,1014.29
2023-05-11T03:12:13.373Z,1014.31
2023-05-11T03:13:13.135Z,1014.30
2023-05-11T03:14:12.872Z,1014.31
2023-05-11T03:15:14.981Z,1014.29
2023-05-11T03:16:12.874Z,1014.27
2023-05-11T03:17:12.741Z,1014.31
2023-05-11T03:18:13.614Z,1014.26
2023-05-11T03:19:13.336Z,1014.29
2023-05-11T03:20:13.385Z,1014.27
2023-05-11T03:21:13.249Z,1014.25
2023-05-11T03:22:13.338Z,1014.27
2023-05-11T03:23:13.436Z,1014.28
2023-05-11T03:24:13.471Z,1014.31
2023-05-11T03:25:13.384Z,1014.29
2023-05-11T03:26:13.535Z,1014.33
2023-05-11T03:27:13.576Z,1014.28
2023-05-11T03:28:13.366Z,1014.32
2023-05-11T03:29:13.195Z,1014.30
2023-05-11T03:30:13.126Z,1014.34
2023-05-11T03:31:13.010Z,1014.30
2023-05-11T03:32:12.953Z,1014.29
2023-05-11T03:33:13.193Z,1014.30
2023-05-11T03:34:13.292Z,1014.29
2023-05-11T03:35:13.240Z,1014.28
2023-05-11T03:36:13.088Z,1014.31
2023-05-11T03:37:12.879Z,1014.33
2023-05-11T03:38:12.710Z,1014.33
2023-05-11T03:39:14.540Z,1014.34
2023-05-11T03:40:13.512Z,1014.32
2023-05-11T03:41:13.526Z,1014.31
2023-05-11T03:42:13.491Z,1014.28
2023-05-11T03:43:13.677Z,1014.28
2023-05-11T03:44:13.497Z,1014.24
2023-05-11T03:45:13.539Z,1014.25
2023-05-11T03:46:13.472Z,1014.24
2023-05-11T03:47:13.514Z,1014.22
2023-05-11T03:48:13.430Z,1014.23
2023-05-11T03:49:13.980Z,1014.21
2023-05-11T03:50:13.050Z,1014.23
2023-05-11T03:51:13.009Z,1014.21
2023-05-11T03:52:13.109Z,1014.21
2023-05-11T03:53:13.046Z,1014.21
2023-05-11T03:54:12.882Z,1014.20
2023-05-11T03:55:13.690Z,1014.18
2023-05-11T03:56:13.484Z,1014.19
2023-05-11T03:57:13.396Z,1014.18
2023-05-11T03:58:13.258Z,1014.16
2023-05-11T03:59:13.113Z,1014.17
2023-05-11T04:00:12.949Z,1014.17
2023-05-11T04:01:12.942Z,1014.17
2023-05-11T04:02:12.826Z,1014.16
2023-05-11T04:03:14.266Z,1014.17
2023-05-11T04:04:13.537Z,1014.17
2023-05-11T04:05:13.718Z,1014.19
2023-05-11T04:06:13.930Z,1014.17
2023-05-11T04:07:12.876Z,1014.12
2023-05-11T04:08:18.821Z,1014.14
2023-05-11T04:09:14.110Z,1014.17
2023-05-11T04:10:13.088Z,1014.15
2023-05-11T04:11:13.217Z,1014.17
2023-05-11T04:12:13.219Z,1014.19
2023-05-11T04:13:13.172Z,1014.18
2023-05-11T04:14:13.193Z,1014.17
2023-05-11T04:15:13.117Z,1014.20
2023-05-11T04:16:12.989Z,1014.15
2023-05-11T04:17:12.911Z,1014.20
2023-05-11T04:18:13.326Z,1014.16
2023-05-11T04:19:13.086Z,1014.17
2023-05-11T04:20:12.914Z,1014.16
2023-05-11T04:21:12.685Z,1014.22
2023-05-11T04:22:13.826Z,1014.20
2023-05-11T04:23:13.698Z,1014.19
2023-05-11T04:24:13.688Z,1014.19
2023-05-11T04:25:13.572Z,1014.23
2023-05-11T04:26:13.786Z,1014.22
2023-05-11T04:27:13.646Z,1014.23
2023-05-11T04:28:13.637Z,1014.23
2023-05-11T04:29:13.502Z,1014.25
2023-05-11T04:30:13.367Z,1014.27
2023-05-11T04:31:13.320Z,1014.27
2023-05-11T04:32:13.363Z,1014.28
2023-05-11T04:33:13.275Z,1014.30
2023-05-11T04:34:13.066Z,1014.31
2023-05-11T04:35:12.937Z,1014.29
2023-05-11T04:36:12.826Z,1014.30
2023-05-11T04:37:13.668Z,1014.33
2023-05-11T04:38:13.436Z,1014.32
2023-05-11T04:39:13.269Z,1014.31
2023-05-11T04:40:13.139Z,1014.33
2023-05-11T04:41:13.114Z,1014.34
2023-05-11T04:42:12.913Z,1014.30
2023-05-11T04:43:12.874Z,1014.32
2023-05-11T04:44:12.893Z,1014.31
2023-05-11T04:45:12.845Z,1014.29
2023-05-11T04:46:13.810Z,1014.31
2023-05-11T04:47:13.637Z,1014.31
2023-05-11T04:48:13.842Z,1014.33
2023-05-11T04:49:12.993Z,1014.28
2023-05-11T04:50:12.966Z,1014.30
2023-05-11T04:51:12.771Z,1014.33
2023-05-11T04:52:13.722Z,1014.31
2023-05-11T04:53:13.767Z,1014.31
2023-05-11T04:54:13.679Z,1014.34
2023-05-11T04:55:13.549Z,1014.32
2023-05-11T04:56:13.303Z,1014.32
2023-05-11T04:57:13.095Z,1014.32
2023-05-11T04:58:13.065Z,1014.31
2023-05-11T04:59:12.939Z,1014.33
2023-05-11T05:00:12.920Z,1014.32
2023-05-11T05:01:12.840Z,1014.33
2023-05-11T05:02:13.636Z,1014.34
2023-05-11T05:03:13.464Z,1014.34
2023-05-11T05:04:13.240Z,1014.32
2023-05-11T05:05:13.904Z,1014.35
2023-05-11T05:06:12.842Z,1014.36
2023-05-11T05:07:13.692Z,1014.39
2023-05-11T05:08:13.791Z,1014.41
2023-05-11T05:09:13.845Z,1014.36
2023-05-11T05:10:13.632Z,1014.40
2023-05-11T05:11:13.665Z,1014.41
2023-05-11T05:12:13.509Z,1014.43
2023-05-11T05:13:13.414Z,1014.48
2023-05-11T05:14:13.438Z,1014.47
2023-05-11T05:15:13.328Z,1014.47
2023-05-11T05:16:13.220Z,1014.48
2023-05-11T05:17:13.104Z,1014.54
2023-05-11T05:18:13.388Z,1014.52
2023-05-11T05:19:13.319Z,1014.54
2023-05-11T05:20:13.151Z,1014.53
2023-05-11T05:22:22.716Z,1014.55
2023-05-11T05:23:13.699Z,1014.55
2023-05-11T05:24:13.654Z,1014.58
2023-05-11T05:25:13.468Z,1014.57
2023-05-11T05:26:13.793Z,1014.63
2023-05-11T05:27:14.010Z,1014.63
2023-05-11T05:28:12.810Z,1014.68
2023-05-11T05:29:13.808Z,1014.66
2023-05-11T05:30:13.704Z,1014.66
2023-05-11T05:31:13.434Z,1014.73
2023-05-11T05:32:13.172Z,1014.71
2023-05-11T05:33:13.014Z,1014.71
2023-05-11T05:34:14.780Z,1014.72
2023-05-11T05:35:13.970Z,1014.70
2023-05-11T05:36:13.188Z,1014.69
2023-05-11T05:37:12.994Z,1014.70
2023-05-11T05:38:12.852Z,1014.72
2023-05-11T05:39:13.726Z,1014.69
2023-05-11T05:40:13.741Z,1014.74
2023-05-11T05:41:13.903Z,1014.67
2023-05-11T05:42:13.046Z,1014.71
2023-05-11T05:43:12.925Z,1014.71
2023-05-11T05:44:13.002Z,1014.71
2023-05-11T05:45:14.776Z,1014.72
2023-05-11T05:46:13.267Z,1014.68
2023-05-11T05:47:13.150Z,1014.74
2023-05-11T05:48:15.034Z,1014.73
2023-05-11T05:49:12.856Z,1014.74
2023-05-11T05:50:13.844Z,1014.76
2023-05-11T05:51:13.870Z,1014.77
2023-05-11T05:52:13.703Z,1014.76
2023-05-11T05:53:13.754Z,1014.78
2023-05-11T05:54:13.877Z,1014.80
2023-05-11T05:55:12.844Z,1014.79
2023-05-11T05:56:14.012Z,1014.78
2023-05-11T05:57:14.343Z,1014.82
2023-05-11T05:58:13.633Z,1014.83
2023-05-11T05:59:13.406Z,1014.86
2023-05-11T06:00:13.273Z,1014.90
2023-05-11T06:01:13.097Z,1014.92
2023-05-11T06:02:12.932Z,1014.89
2023-05-11T06:03:13.470Z,1014.90
2023-05-11T06:04:13.842Z,1014.90
2023-05-11T06:05:13.321Z,1014.89
2023-05-11T06:06:13.064Z,1014.91
2023-05-11T06:07:13.025Z,1014.91
2023-05-11T06:08:12.927Z,1014.93
2023-05-11T06:09:12.814Z,1014.91
2023-05-11T06:10:13.622Z,1014.94
2023-05-11T06:11:14.529Z,1014.94
2023-05-11T06:12:13.453Z,1014.96
2023-05-11T06:13:13.499Z,1014.94
2023-05-11T06:14:13.354Z,1014.94
2023-05-11T06:15:14.412Z,1014.93
2023-05-11T06:16:13.238Z,1014.95
2023-05-11T06:17:13.071Z,1014.95
2023-05-11T06:18:12.937Z,1014.97
2023-05-11T06:19:12.990Z,1014.92
2023-05-11T06:20:13.128Z,1014.90
2023-05-11T06:21:12.951Z,1014.95
2023-05-11T06:22:12.759Z,1014.94
2023-05-11T06:23:13.826Z,1014.96
2023-05-11T06:24:13.693Z,1014.93
2023-05-11T06:25:13.771Z,1014.96
2023-05-11T06:26:13.653Z,1014.93
2023-05-11T06:27:13.465Z,1014.96
2023-05-11T06:28:13.568Z,1014.94
2023-05-11T06:29:13.662Z,1014.95
2023-05-11T06:30:13.520Z,1014.94
2023-05-11T06:31:13.547Z,1014.93
2023-05-11T06:32:13.639Z,1014.94
2023-05-11T06:33:13.662Z,1014.92
2023-05-11T06:34:13.533Z,1014.90
2023-05-11T06:35:13.382Z,1014.88
2023-05-11T06:36:13.274Z,1014.92
2023-05-11T06:37:13.323Z,1014.88
2023-05-11T06:38:13.356Z,1014.93
2023-05-11T06:39:13.358Z,1014.88
2023-05-11T06:40:13.211Z,1014.92
2023-05-11T06:41:13.088Z,1014.90
2023-05-11T06:42:12.990Z,1014.90
2023-05-11T06:43:12.871Z,1014.89
2023-05-11T06:44:13.938Z,1014.92
2023-05-11T06:45:12.923Z,1014.90
2023-05-11T06:46:12.844Z,1014.97
2023-05-11T06:47:12.833Z,1014.95
2023-05-11T06:48:14.060Z,1014.96
2023-05-11T06:49:12.984Z,1014.97
2023-05-11T06:50:12.810Z,1014.95
2023-05-11T06:51:13.918Z,1014.93
2023-05-11T06:52:12.821Z,1014.93
2023-05-11T06:53:14.034Z,1014.96
2023-05-11T06:54:13.452Z,1014.91
2023-05-11T06:55:13.282Z,1014.98
2023-05-11T06:56:13.192Z,1014.94
2023-05-11T06:57:14.516Z,1014.94
2023-05-11T06:58:14.020Z,1014.93
2023-05-11T06:59:12.792Z,1014.96
2023-05-11T07:00:13.875Z,1014.96
2023-05-11T07:01:13.703Z,1014.97
2023-05-11T07:02:13.544Z,1014.96
2023-05-11T07:03:13.390Z,1014.96
2023-05-11T07:04:13.400Z,1014.99
2023-05-11T07:05:13.335Z,1015.02
2023-05-11T07:06:13.448Z,1015.00
2023-05-11T07:07:13.377Z,1014.98
2023-05-11T07:08:13.860Z,1015.05
2023-05-11T07:09:15.953Z,1015.02
2023-05-11T07:10:12.861Z,1015.01
2023-05-11T07:11:13.761Z,1015.01
2023-05-11T07:12:13.706Z,1015.02
2023-05-11T07:13:13.562Z,1015.00
2023-05-11T07:14:13.698Z,1015.02
2023-05-11T07:15:13.529Z,1015.01
2023-05-11T07:16:13.380Z,1015.03
2023-05-11T07:17:13.255Z,1015.02
2023-05-11T07:18:13.231Z,1015.02
2023-05-11T07:19:13.060Z,1015.04
2023-05-11T07:20:12.987Z,1015.05
2023-05-11T07:21:13.932Z,1015.02
2023-05-11T07:22:14.908Z,1015.03
2023-05-11T07:23:13.013Z,1014.99
2023-05-11T07:24:13.154Z,1015.06
2023-05-11T07:25:13.089Z,1014.99
2023-05-11T07:26:12.944Z,1015.00
2023-05-11T07:27:12.912Z,1015.02
2023-05-11T07:28:12.985Z,1015.02
2023-05-11T07:29:13.088Z,1015.04
2023-05-11T07:30:13.224Z,1015.04
2023-05-11T07:31:13.368Z,1015.00
2023-05-11T07:32:13.203Z,1015.01
2023-05-11T07:33:13.545Z,1015.03
2023-05-11T07:34:13.420Z,1014.98
2023-05-11T07:35:13.584Z,1015.01
2023-05-11T07:36:13.506Z,1015.00
2023-05-11T07:37:13.486Z,1015.09
2023-05-11T07:38:13.314Z,1015.01
2023-05-11T07:39:13.387Z,1015.04
2023-05-11T07:40:13.363Z,1015.02
2023-05-11T07:41:13.184Z,1015.05
2023-05-11T07:42:12.954Z,1015.02
2023-05-11T07:43:12.923Z,1015.02
2023-05-11T07:44:12.801Z,1015.07
2023-05-11T07:45:13.709Z,1015.05
2023-05-11T07:46:14.208Z,1015.08
2023-05-11T07:47:13.040Z,1015.06
2023-05-11T07:48:13.094Z,1015.04
2023-05-11T07:49:17.089Z,1015.04
2023-05-11T07:50:18.837Z,1015.03
2023-05-11T07:51:12.825Z,1015.03
2023-05-11T07:52:13.647Z,1015.02
2023-05-11T07:53:13.495Z,1015.05
2023-05-11T07:54:13.639Z,1015.04
2023-05-11T07:55:13.591Z,1015.00
2023-05-11T07:56:13.890Z,1015.07
2023-05-11T07:57:16.054Z,1015.02
2023-05-11T07:58:12.906Z,1015.06
2023-05-11T07:59:12.876Z,1015.11
2023-05-11T08:00:13.692Z,1015.05
2023-05-11T08:01:13.572Z,1015.07
2023-05-11T08:02:13.692Z,1015.04
2023-05-11T08:03:13.738Z,1015.08
2023-05-11T08:04:18.228Z,1015.04
2023-05-11T08:05:13.528Z,1015.05
2023-05-11T08:06:13.651Z,1015.03
2023-05-11T08:07:13.708Z,1015.03
2023-05-11T08:08:13.608Z,1015.05
2023-05-11T08:09:13.724Z,1015.06
2023-05-11T08:10:14.051Z,1015.04
2023-05-11T08:11:12.900Z,1015.07
2023-05-11T08:12:13.811Z,1015.06
2023-05-11T08:13:13.681Z,1015.01
2023-05-11T08:14:13.565Z,1015.02
2023-05-11T08:15:13.555Z,1015.08
2023-05-11T08:16:13.514Z,1015.09
2023-05-11T08:17:13.556Z,1015.10
2023-05-11T08:18:13.444Z,1015.06
2023-05-11T08:19:13.492Z,1015.08
2023-05-11T08:20:14.035Z,1015.07
2023-05-11T08:21:12.940Z,1015.08
2023-05-11T08:22:13.116Z,1015.09
2023-05-11T08:23:13.019Z,1015.05
2023-05-11T08:24:13.146Z,1015.07
2023-05-11T08:25:12.950Z,1015.11
2023-05-11T08:26:12.781Z,1015.05
2023-05-11T08:27:13.804Z,1015.12
2023-05-11T08:28:13.724Z,1015.09
2023-05-11T08:29:29.218Z,1015.13
2023-05-11T08:30:13.513Z,1015.09
2023-05-11T08:31:13.392Z,1015.14
2023-05-11T08:32:13.611Z,1015.08
2023-05-11T08:33:33.921Z,1015.10
2023-05-11T08:34:19.321Z,1015.10
2023-05-11T08:35:13.323Z,1015.09
2023-05-11T08:36:13.265Z,1015.09
2023-05-11T08:37:13.205Z,1015.12
2023-05-11T08:38:13.061Z,1015.06
2023-05-11T08:39:12.896Z,1015.10
2023-05-11T08:40:14.773Z,1015.09
2023-05-11T08:41:13.109Z,1015.08
2023-05-11T08:42:18.089Z,1015.06
2023-05-11T08:43:13.145Z,1015.06
2023-05-11T08:44:13.071Z,1015.05
2023-05-11T08:45:13.070Z,1015.06
2023-05-11T08:46:12.917Z,1015.07
2023-05-11T08:47:21.763Z,1015.06
2023-05-11T08:48:13.083Z,1015.05
2023-05-11T08:49:12.995Z,1015.09
2023-05-11T08:50:13.084Z,1015.07
2023-05-11T08:51:12.985Z,1015.05
2023-05-11T08:52:12.895Z,1015.08
2023-05-11T08:53:12.699Z,1015.09
2023-05-11T08:54:13.731Z,1015.09
2023-05-11T08:55:13.658Z,1015.08
2023-05-11T08:56:13.558Z,1015.09
2023-05-11T08:57:13.623Z,1015.12
2023-05-11T08:58:13.608Z,1015.12
2023-05-11T08:59:14.584Z,1015.10
2023-05-11T09:00:13.482Z,1015.13
2023-05-11T09:01:13.386Z,1015.10
2023-05-11T09:02:13.345Z,1015.10
2023-05-11T09:03:13.587Z,1015.08
2023-05-11T09:04:13.456Z,1015.12
2023-05-11T09:05:13.487Z,1015.11
2023-05-11T09:06:13.442Z,1015.14
2023-05-11T09:07:13.312Z,1015.06
2023-05-11T09:08:13.160Z,1015.12
2023-05-11T09:09:13.096Z,1015.16
2023-05-11T09:10:14.113Z,1015.14
2023-05-11T09:11:13.274Z,1015.16
2023-05-11T09:12:13.066Z,1015.10
2023-05-11T09:13:13.036Z,1015.15
2023-05-11T09:14:12.943Z,1015.15
2023-05-11T09:15:13.078Z,1015.15
2023-05-11T09:16:24.336Z,1015.12
2023-05-11T09:17:13.378Z,1015.08
2023-05-11T09:18:14.531Z,1015.09
2023-05-11T09:19:13.798Z,1015.12
2023-05-11T09:20:13.962Z,1015.08
2023-05-11T09:21:13.407Z,1015.14
2023-05-11T09:22:13.327Z,1015.09
2023-05-11T09:23:13.795Z,1015.13
2023-05-11T09:24:13.646Z,1015.13
2023-05-11T09:25:13.485Z,1015.09
2023-05-11T09:26:13.408Z,1015.11
2023-05-11T09:27:13.273Z,1015.09
2023-05-11T09:28:15.875Z,1015.16
2023-05-11T09:29:12.945Z,1015.12
2023-05-11T09:30:12.854Z,1015.09
2023-05-11T09:31:13.765Z,1015.08
2023-05-11T09:32:13.660Z,1015.10
2023-05-11T09:33:15.886Z,1015.09
2023-05-11T09:34:13.521Z,1015.10
2023-05-11T09:35:13.606Z,1015.10
2023-05-11T09:36:13.600Z,1015.11
2023-05-11T09:37:13.478Z,1015.09
2023-05-11T09:38:13.320Z,1015.08
2023-05-11T09:39:16.493Z,1015.06
2023-05-11T09:41:13.713Z,1015.07
2023-05-11T09:42:13.538Z,1015.09
2023-05-11T09:43:13.728Z,1015.07
2023-05-11T09:44:13.933Z,1015.08
2023-05-11T09:45:12.776Z,1015.06
2023-05-11T09:46:13.819Z,1015.10
2023-05-11T09:47:13.814Z,1015.08
2023-05-11T09:48:13.885Z,1015.05
2023-05-11T09:49:12.866Z,1015.01
2023-05-11T09:50:13.759Z,1015.03
2023-05-11T09:51:13.598Z,1015.04
2023-05-11T09:52:13.545Z,1015.00
2023-05-11T09:53:18.621Z,1015.03
2023-05-11T09:54:13.368Z,1015.02
2023-05-11T09:55:13.410Z,1015.03
2023-05-11T09:56:18.319Z,1015.02
2023-05-11T09:57:13.147Z,1015.00
2023-05-11T09:58:13.325Z,1015.02
2023-05-11T09:59:13.201Z,1015.05
2023-05-11T10:00:13.186Z,1015.04
2023-05-11T10:01:13.104Z,1015.01
2023-05-11T10:02:13.002Z,1015.03
2023-05-11T10:03:13.127Z,1015.01
2023-05-11T10:04:22.913Z,1015.02
2023-05-11T10:05:13.740Z,1015.03
2023-05-11T10:06:13.483Z,1015.01
2023-05-11T10:07:13.365Z,1014.98
2023-05-11T10:08:13.270Z,1014.98
2023-05-11T10:09:13.421Z,1015.00
2023-05-11T10:10:13.277Z,1015.00
2023-05-11T10:11:13.003Z,1015.02
2023-05-11T10:12:14.129Z,1014.97
2023-05-11T10:13:13.067Z,1015.01
2023-05-11T10:14:13.166Z,1015.02
2023-05-11T10:15:13.074Z,1015.01
2023-05-11T10:16:13.144Z,1015.00
2023-05-11T10:17:12.961Z,1015.03
2023-05-11T10:18:12.845Z,1015.04
2023-05-11T10:19:13.826Z,1014.97
2023-05-11T10:20:13.661Z,1015.01
2023-05-11T10:21:13.662Z,1014.98
2023-05-11T10:22:13.563Z,1014.98
2023-05-11T10:23:13.537Z,1015.00
2023-05-11T10:24:13.622Z,1014.97
2023-05-11T10:25:13.489Z,1014.98
2023-05-11T10:26:13.732Z,1014.97
2023-05-11T10:27:13.871Z,1014.96
2023-05-11T10:28:13.777Z,1014.98
2023-05-11T10:29:13.850Z,1014.97
2023-05-11T10:30:13.665Z,1014.97
2023-05-11T10:31:13.603Z,1014.96
2023-05-11T10:32:13.814Z,1014.93
2023-05-11T10:33:13.777Z,1014.93
2023-05-11T10:34:13.982Z,1014.92
2023-05-11T10:35:13.084Z,1014.90
2023-05-11T10:37:13.506Z,1014.91
2023-05-11T10:38:13.354Z,1014.89
2023-05-11T10:39:13.325Z,1014.89
2023-05-11T10:40:13.212Z,1014.92
2023-05-11T10:41:13.104Z,1014.90
2023-05-11T10:42:13.474Z,1014.93
2023-05-11T10:43:13.502Z,1014.92
2023-05-11T10:44:13.378Z,1014.93
2023-05-11T10:45:13.618Z,1014.95
2023-05-11T10:46:13.541Z,1014.95
2023-05-11T10:47:13.532Z,1014.94
2023-05-11T10:48:13.366Z,1014.94
2023-05-11T10:49:13.348Z,1014.96
2023-05-11T10:50:13.374Z,1014.92
2023-05-11T10:51:13.193Z,1014.93
2023-05-11T10:52:13.115Z,1014.94
2023-05-11T10:53:12.956Z,1014.94
2023-05-11T10:54:12.738Z,1014.90
2023-05-11T10:55:13.651Z,1014.90
2023-05-11T10:56:13.727Z,1014.91
2023-05-11T10:57:13.589Z,1014.90
2023-05-11T10:58:13.442Z,1014.91
2023-05-11T10:59:13.556Z,1014.94
2023-05-11T11:00:13.447Z,1014.93
2023-05-11T11:01:13.456Z,1014.94
2023-05-11T11:02:13.800Z,1014.94
2023-05-11T11:03:13.632Z,1014.95
2023-05-11T11:04:13.400Z,1014.92
2023-05-11T11:05:13.329Z,1014.91
2023-05-11T11:06:13.092Z,1014.91
2023-05-11T11:07:13.015Z,1014.90
2023-05-11T11:08:13.760Z,1014.91
2023-05-11T11:09:13.685Z,1014.93
2023-05-11T11:10:13.580Z,1014.97
2023-05-11T11:11:13.532Z,1014.96
2023-05-11T11:12:13.398Z,1014.88
2023-05-11T11:13:13.309Z,1014.90
2023-05-11T11:14:13.271Z,1014.91
2023-05-11T11:15:13.102Z,1014.90
2023-05-11T11:16:16.212Z,1014.90
2023-05-11T11:17:13.939Z,1014.88
2023-05-11T11:18:12.842Z,1014.87
2023-05-11T11:19:13.610Z,1014.86
2023-05-11T11:20:13.465Z,1014.87
2023-05-11T11:21:13.320Z,1014.85
2023-05-11T11:22:13.134Z,1014.83
2023-05-11T11:23:13.069Z,1014.83
2023-05-11T11:24:12.902Z,1014.83
2023-05-11T11:25:12.973Z,1014.78
2023-05-11T11:26:12.894Z,1014.77
2023-05-11T11:27:13.607Z,1014.72
2023-05-11T11:28:13.477Z,1014.74
2023-05-11T11:29:13.357Z,1014.74
2023-05-11T11:30:13.815Z,1014.75
2023-05-11T11:31:13.813Z,1014.73
2023-05-11T11:32:13.717Z,1014.77
2023-05-11T11:33:13.764Z,1014.74
2023-05-11T11:34:13.707Z,1014.70
2023-05-11T11:35:13.599Z,1014.71
2023-05-11T11:36:13.892Z,1014.73
2023-05-11T11:37:13.160Z,1014.71
2023-05-11T11:38:12.943Z,1014.71
2023-05-11T11:39:12.910Z,1014.72
2023-05-11T11:40:15.237Z,1014.71
2023-05-11T11:41:12.777Z,1014.71
2023-05-11T11:42:13.727Z,1014.73
2023-05-11T11:43:13.972Z,1014.71
2023-05-11T11:44:12.815Z,1014.72
2023-05-11T11:45:19.116Z,1014.74
2023-05-11T11:46:13.346Z,1014.73
2023-05-11T11:47:13.328Z,1014.72
2023-05-11T11:48:25.419Z,1014.74
2023-05-11T11:49:13.324Z,1014.76
2023-05-11T11:50:13.413Z,1014.78
2023-05-11T11:51:13.470Z,1014.78
2023-05-11T11:52:13.281Z,1014.76
2023-05-11T11:53:13.134Z,1014.73
2023-05-11T11:54:13.051Z,1014.74
2023-05-11T11:55:13.077Z,1014.75
2023-05-11T11:56:13.077Z,1014.75
2023-05-11T11:57:12.879Z,1014.71
2023-05-11T11:58:12.870Z,1014.75
2023-05-11T11:59:12.722Z,1014.71
2023-05-11T12:00:13.587Z,1014.69
2023-05-11T12:01:13.385Z,1014.71
2023-05-11T12:02:13.371Z,1014.73
2023-05-11T12:03:13.352Z,1014.74
2023-05-11T12:04:13.328Z,1014.73
2023-05-11T12:05:13.548Z,1014.72
2023-05-11T12:06:13.779Z,1014.75
2023-05-11T12:07:13.959Z,1014.76
2023-05-11T12:08:12.843Z,1014.76